Time;durP1;ratioP1;P1;durP2;ratioP2;P2;SDS_P1;SDS_P2;PMS_P1;PMS_P2;Temp;Humidity;BMP_temperature;BMP_pressure;BME280_temperature;BME280_humidity;BME280_pressure;Samples;Min_cycle;Max_cycle;Signal;HPM_P1;HPM_P2
2021/10/29 00:02:19;;;;;;;50.75;30.42;;;5.00;99.90;;;;;;4880129;29;20206;-94
2021/10/29 00:04:45;;;;;;;45.67;31.42;;;5.00;99.90;;;;;;4880176;29;20218;-94
2021/10/29 00:07:12;;;;;;;48.80;30.58;;;4.90;99.90;;;;;;4887305;29;20180;-93
2021/10/29 00:09:38;;;;;;;52.72;32.20;;;4.90;99.90;;;;;;4884377;29;20211;-93
2021/10/29 00:12:05;;;;;;;46.88;32.20;;;4.90;99.90;;;;;;4887130;29;20207;-93
2021/10/29 00:14:32;;;;;;;49.13;30.38;;;4.90;99.90;;;;;;4885465;29;20211;-94
2021/10/29 00:16:59;;;;;;;47.65;31.48;;;4.90;99.90;;;;;;4868240;29;20192;-94
2021/10/29 00:19:24;;;;;;;53.33;31.85;;;4.90;99.90;;;;;;4883801;29;20272;-94
2021/10/29 00:21:50;;;;;;;51.97;32.77;;;4.90;99.90;;;;;;4884703;29;20212;-94
2021/10/29 00:24:16;;;;;;;53.33;32.50;;;4.90;99.90;;;;;;4889506;29;20179;-94
2021/10/29 00:26:42;;;;;;;49.50;30.83;;;4.90;99.90;;;;;;4870014;29;20216;-92
2021/10/29 00:29:08;;;;;;;46.65;30.40;;;4.90;99.90;;;;;;4869051;29;20204;-95
2021/10/29 00:31:34;;;;;;;52.50;32.20;;;4.90;99.90;;;;;;4884956;29;20228;-93
2021/10/29 00:34:00;;;;;;;56.33;34.93;;;4.80;99.90;;;;;;4885173;29;20472;-94
2021/10/29 00:36:26;;;;;;;50.50;31.00;;;4.80;99.90;;;;;;4889390;29;20430;-93
2021/10/29 00:38:51;;;;;;;54.37;33.43;;;4.80;99.90;;;;;;4894945;29;20192;-93
2021/10/29 00:41:17;;;;;;;48.57;30.83;;;4.80;99.90;;;;;;4889889;29;20486;-94
2021/10/29 00:43:43;;;;;;;47.13;31.37;;;4.80;99.90;;;;;;4883598;29;20187;-92
2021/10/29 00:46:09;;;;;;;48.70;31.10;;;4.80;99.90;;;;;;4884982;29;20227;-94
2021/10/29 00:48:35;;;;;;;56.57;32.33;;;4.80;99.90;;;;;;4884281;29;20396;-93
2021/10/29 00:51:02;;;;;;;52.30;31.35;;;4.70;99.90;;;;;;4887456;29;20208;-94
2021/10/29 00:53:29;;;;;;;47.80;33.58;;;4.70;99.90;;;;;;4884690;29;20604;-93
2021/10/29 00:55:56;;;;;;;55.88;34.85;;;4.70;99.90;;;;;;4869637;29;20271;-93
2021/10/29 00:58:22;;;;;;;55.55;32.17;;;4.70;99.90;;;;;;4891861;29;20180;-94
2021/10/29 01:00:47;;;;;;;50.20;30.83;;;4.60;99.90;;;;;;4867133;29;20660;-94
2021/10/29 01:03:13;;;;;;;48.10;31.33;;;4.60;99.90;;;;;;4884037;29;20650;-92
2021/10/29 01:05:39;;;;;;;53.27;34.33;;;4.60;99.90;;;;;;4887397;29;20255;-94
2021/10/29 01:08:06;;;;;;;52.30;31.90;;;4.60;99.90;;;;;;4883634;29;20178;-93
2021/10/29 01:10:32;;;;;;;54.90;33.20;;;4.70;99.90;;;;;;4884083;29;20243;-95
2021/10/29 01:12:59;;;;;;;57.92;33.45;;;4.60;99.90;;;;;;4883219;29;20236;-94
2021/10/29 01:15:25;;;;;;;64.80;35.40;;;4.60;99.90;;;;;;4885418;29;20215;-94
2021/10/29 01:17:51;;;;;;;53.00;33.00;;;4.60;99.90;;;;;;4885495;29;20184;-94
2021/10/29 01:20:21;;;;;;;54.23;33.43;;;4.60;99.90;;;;;;4871080;29;20222;-94
2021/10/29 01:22:48;;;;;;;50.08;32.08;;;4.50;99.90;;;;;;4883413;29;20394;-93
2021/10/29 01:25:14;;;;;;;48.78;33.42;;;4.50;99.90;;;;;;4883267;29;20207;-95
2021/10/29 01:27:40;;;;;;;54.35;30.95;;;4.50;99.90;;;;;;4885948;29;20182;-94
2021/10/29 01:30:07;;;;;;;53.40;32.45;;;4.50;99.90;;;;;;4887030;29;20211;-94
2021/10/29 01:32:33;;;;;;;48.53;31.38;;;4.50;99.90;;;;;;4870826;29;20245;-93
2021/10/29 01:34:59;;;;;;;54.00;32.13;;;4.50;99.90;;;;;;4884115;29;20235;-94
2021/10/29 01:37:26;;;;;;;52.10;32.03;;;4.50;99.90;;;;;;4882251;29;20423;-93
2021/10/29 01:39:51;;;;;;;48.78;29.88;;;4.50;99.90;;;;;;4882448;29;20480;-94
2021/10/29 01:42:18;;;;;;;49.23;31.50;;;4.40;99.90;;;;;;4867694;29;20641;-95
2021/10/29 01:44:46;;;;;;;48.45;31.85;;;4.40;99.90;;;;;;4885871;29;20227;-95
2021/10/29 01:47:12;;;;;;;47.45;29.90;;;4.30;99.90;;;;;;4885742;29;20191;-94
2021/10/29 01:49:40;;;;;;;48.35;30.83;;;4.30;99.90;;;;;;4877012;29;20228;-92
2021/10/29 01:52:10;;;;;;;51.85;32.22;;;4.40;99.90;;;;;;4884408;29;20184;-94
2021/10/29 01:54:36;;;;;;;48.55;30.80;;;4.40;99.90;;;;;;4882245;29;20212;-94
2021/10/29 01:57:02;;;;;;;57.17;31.02;;;4.40;99.90;;;;;;4885990;29;20240;-92
2021/10/29 01:59:28;;;;;;;48.73;30.93;;;4.40;99.90;;;;;;4887022;29;20212;-94
2021/10/29 02:01:54;;;;;;;49.20;30.63;;;4.40;99.90;;;;;;4890041;29;20419;-93
2021/10/29 02:04:23;;;;;;;51.93;31.50;;;4.40;99.90;;;;;;4894158;29;20219;-93
2021/10/29 02:06:50;;;;;;;42.83;29.90;;;4.30;99.90;;;;;;4887395;29;20466;-94
2021/10/29 02:09:16;;;;;;;47.47;31.13;;;4.30;99.90;;;;;;4881877;29;20204;-94
2021/10/29 02:11:41;;;;;;;52.75;30.80;;;4.30;99.90;;;;;;4886984;29;20660;-93
2021/10/29 02:14:07;;;;;;;46.53;29.50;;;4.30;99.90;;;;;;4865816;29;20183;-95
2021/10/29 02:16:34;;;;;;;48.53;31.13;;;4.30;99.90;;;;;;4866421;29;20180;-94
2021/10/29 02:19:00;;;;;;;46.70;30.38;;;4.20;99.90;;;;;;4865925;29;20188;-94
2021/10/29 02:21:28;;;;;;;54.45;32.78;;;4.20;99.90;;;;;;4881992;29;20609;-94
2021/10/29 02:23:54;;;;;;;53.78;31.90;;;4.20;99.90;;;;;;4885597;29;20243;-94
2021/10/29 02:26:20;;;;;;;48.40;33.00;;;4.10;99.90;;;;;;4887426;29;20250;-93
2021/10/29 02:28:45;;;;;;;54.13;33.73;;;4.10;99.90;;;;;;4881261;29;20227;-94
2021/10/29 02:31:12;;;;;;;46.23;32.27;;;4.10;99.90;;;;;;4881159;29;20307;-94
2021/10/29 02:33:38;;;;;;;53.38;31.33;;;4.10;99.90;;;;;;4865916;29;20660;-93
2021/10/29 02:36:04;;;;;;;48.80;32.03;;;4.10;99.90;;;;;;4887997;29;20267;-94
2021/10/29 02:38:30;;;;;;;53.05;32.28;;;4.10;99.90;;;;;;4866568;29;20183;-94
2021/10/29 02:40:56;;;;;;;57.40;32.10;;;4.10;99.90;;;;;;4881617;29;20239;-94
2021/10/29 02:43:21;;;;;;;57.33;32.53;;;4.10;99.90;;;;;;4882752;29;20204;-93
2021/10/29 02:45:47;;;;;;;53.00;31.40;;;4.10;99.90;;;;;;4881976;29;20228;-94
2021/10/29 02:48:13;;;;;;;56.93;31.77;;;4.10;99.90;;;;;;4882689;29;20200;-93
2021/10/29 02:50:38;;;;;;;53.97;31.90;;;4.00;99.90;;;;;;4871434;29;20458;-93
2021/10/29 02:53:05;;;;;;;50.63;31.50;;;4.00;99.90;;;;;;4892043;29;20215;-93
2021/10/29 02:55:32;;;;;;;56.80;35.33;;;3.90;99.90;;;;;;4888493;29;20216;-93
2021/10/29 02:57:58;;;;;;;53.63;32.90;;;3.90;99.90;;;;;;4891080;29;20187;-93
2021/10/29 03:00:23;;;;;;;62.50;36.13;;;3.90;99.90;;;;;;4891127;29;20216;-94
2021/10/29 03:02:49;;;;;;;52.00;34.33;;;3.90;99.90;;;;;;4885177;29;20231;-93
2021/10/29 03:05:15;;;;;;;56.67;34.70;;;3.90;99.90;;;;;;4884604;29;20295;-95
2021/10/29 03:07:42;;;;;;;60.42;33.13;;;4.00;99.90;;;;;;4864937;29;20231;-94
2021/10/29 03:10:09;;;;;;;49.40;31.27;;;4.00;99.90;;;;;;4880751;29;20312;-94
2021/10/29 03:12:35;;;;;;;46.40;30.73;;;4.00;99.90;;;;;;4882264;29;20180;-94
2021/10/29 03:15:03;;;;;;;55.03;32.80;;;4.00;99.90;;;;;;4890831;29;20624;-93
2021/10/29 03:17:29;;;;;;;55.22;35.65;;;4.00;99.90;;;;;;4884659;29;20184;-94
2021/10/29 03:19:55;;;;;;;57.42;35.25;;;4.00;99.90;;;;;;4892261;29;20216;-94
2021/10/29 03:22:21;;;;;;;48.87;34.40;;;4.00;99.90;;;;;;4890472;29;20187;-93
2021/10/29 03:24:47;;;;;;;53.13;32.30;;;4.00;99.90;;;;;;4889357;29;20377;-94
2021/10/29 03:27:12;;;;;;;50.10;33.87;;;4.00;99.90;;;;;;4889147;29;20247;-92
2021/10/29 03:29:39;;;;;;;54.80;33.50;;;4.00;99.90;;;;;;4869189;29;20211;-93
2021/10/29 03:32:06;;;;;;;53.70;32.75;;;4.00;99.90;;;;;;4881349;29;20175;-93
2021/10/29 03:34:32;;;;;;;54.67;33.08;;;4.00;99.90;;;;;;4864691;29;20212;-95
2021/10/29 03:36:58;;;;;;;53.53;32.83;;;4.00;99.90;;;;;;4880331;29;20540;-94
2021/10/29 03:39:30;;;;;;;51.30;32.77;;;3.90;99.90;;;;;;4881644;29;20200;-94
2021/10/29 03:41:59;;;;;;;56.55;33.53;;;3.90;99.90;;;;;;4888045;29;20563;-94
2021/10/29 03:46:52;;;;;;;52.07;32.40;;;3.80;99.90;;;;;;4881130;29;20625;-94
2021/10/29 03:49:30;;;;;;;54.15;33.53;;;3.80;99.90;;;;;;4880036;29;20477;-93
2021/10/29 03:52:09;;;;;;;53.53;32.15;;;3.70;99.90;;;;;;4864621;29;20184;-94
2021/10/29 03:54:35;;;;;;;49.80;30.40;;;3.60;99.90;;;;;;4883532;29;20206;-93
2021/10/29 03:59:28;;;;;;;55.60;33.77;;;3.60;99.90;;;;;;4880840;29;20219;-95
2021/10/29 04:01:54;;;;;;;52.85;34.10;;;3.50;99.90;;;;;;4880124;29;20412;-94
2021/10/29 04:04:20;;;;;;;46.33;31.93;;;3.50;99.90;;;;;;4880085;29;20212;-94
2021/10/29 04:06:46;;;;;;;55.88;32.72;;;3.50;99.90;;;;;;4882118;29;20466;-93
2021/10/29 04:09:13;;;;;;;50.92;31.77;;;3.50;99.90;;;;;;4886055;29;20270;-94
2021/10/29 04:11:39;;;;;;;49.72;31.88;;;3.40;99.90;;;;;;4884207;29;20203;-93
2021/10/29 04:14:11;;;;;;;47.05;30.20;;;3.40;99.90;;;;;;4887307;29;20594;-94
2021/10/29 04:16:39;;;;;;;49.00;33.35;;;3.40;99.90;;;;;;4890750;29;20179;-94
2021/10/29 04:19:09;;;;;;;47.80;29.98;;;3.50;99.90;;;;;;4894824;29;20190;-94
2021/10/29 04:21:38;;;;;;;53.22;29.73;;;3.50;99.90;;;;;;4890580;29;20661;-94
2021/10/29 04:24:07;;;;;;;51.42;30.30;;;3.60;99.90;;;;;;4906330;29;20644;-94
2021/10/29 04:26:35;;;;;;;59.22;33.42;;;3.60;99.90;;;;;;4895429;29;20572;-94
2021/10/29 04:29:02;;;;;;;59.03;29.95;;;3.60;99.90;;;;;;4878909;29;20540;-94
2021/10/29 04:31:31;;;;;;;54.28;32.30;;;3.70;99.90;;;;;;4907006;29;20712;-92
2021/10/29 04:33:56;;;;;;;47.78;31.77;;;3.70;99.90;;;;;;4895652;29;20167;-95
2021/10/29 04:36:24;;;;;;;47.27;31.00;;;3.70;99.90;;;;;;4880872;29;20192;-93
2021/10/29 04:38:50;;;;;;;53.33;31.67;;;3.70;99.90;;;;;;4870990;29;20415;-93
2021/10/29 04:41:17;;;;;;;58.33;33.53;;;3.70;99.90;;;;;;4880056;29;20240;-94
2021/10/29 04:43:43;;;;;;;51.20;33.15;;;3.70;99.90;;;;;;4863490;29;20191;-94
2021/10/29 04:46:09;;;;;;;49.27;31.50;;;3.70;99.90;;;;;;4871714;29;20220;-94
2021/10/29 04:48:36;;;;;;;51.88;34.08;;;3.70;99.90;;;;;;4880818;29;20767;-94
2021/10/29 04:51:02;;;;;;;51.58;30.48;;;3.70;99.90;;;;;;4867294;29;20674;-94
2021/10/29 04:53:27;;;;;;;52.40;33.17;;;3.70;99.90;;;;;;4879378;29;20186;-93
2021/10/29 04:55:53;;;;;;;57.00;33.13;;;3.60;99.90;;;;;;4881070;29;20498;-94
2021/10/29 04:58:19;;;;;;;51.73;32.83;;;3.60;99.90;;;;;;4878225;29;20184;-93
2021/10/29 05:00:46;;;;;;;57.57;32.37;;;3.60;99.90;;;;;;4875665;29;20540;-94
2021/10/29 05:03:11;;;;;;;54.17;31.85;;;3.60;99.90;;;;;;4887225;29;20201;-94
2021/10/29 05:05:37;;;;;;;53.47;33.00;;;3.60;99.90;;;;;;4874533;29;20227;-94
2021/10/29 05:08:05;;;;;;;55.90;33.87;;;3.60;99.90;;;;;;4868407;29;20202;-92
2021/10/29 05:10:30;;;;;;;64.32;34.67;;;3.60;99.90;;;;;;4868996;29;20247;-94
2021/10/29 05:12:58;;;;;;;63.00;33.60;;;3.60;99.90;;;;;;4875454;29;20180;-92
2021/10/29 05:15:24;;;;;;;62.13;36.22;;;3.70;99.90;;;;;;4876230;29;20451;-94
2021/10/29 05:17:50;;;;;;;54.35;34.45;;;3.60;99.90;;;;;;4869160;29;20184;-93
2021/10/29 05:20:16;;;;;;;58.30;36.22;;;3.60;99.90;;;;;;4889587;29;20204;-94
2021/10/29 05:22:42;;;;;;;61.65;34.40;;;3.60;99.90;;;;;;4868700;29;20279;-92
2021/10/29 05:25:09;;;;;;;56.90;35.03;;;3.60;99.90;;;;;;4868900;29;20669;-94
2021/10/29 05:27:36;;;;;;;58.47;34.10;;;3.60;99.90;;;;;;4868975;29;20393;-93
2021/10/29 05:30:08;;;;;;;56.53;33.35;;;3.60;99.90;;;;;;4869036;29;20208;-94
2021/10/29 05:32:34;;;;;;;52.53;33.10;;;3.60;99.90;;;;;;4868392;29;20626;-94
2021/10/29 05:35:01;;;;;;;52.72;32.92;;;3.60;99.90;;;;;;4867194;29;20208;-94
2021/10/29 05:37:31;;;;;;;46.10;30.33;;;3.60;99.90;;;;;;4884846;29;20184;-93
2021/10/29 05:39:58;;;;;;;64.43;33.15;;;3.50;99.90;;;;;;4872246;29;20773;-94
2021/10/29 05:42:25;;;;;;;57.22;33.08;;;3.50;99.90;;;;;;4871165;29;20222;-93
2021/10/29 05:44:51;;;;;;;52.13;33.22;;;3.40;99.90;;;;;;4867842;29;20661;-94
2021/10/29 05:47:17;;;;;;;51.35;31.77;;;3.40;99.90;;;;;;4870826;29;20231;-92
2021/10/29 05:49:43;;;;;;;51.50;33.93;;;3.30;99.90;;;;;;4870752;29;20204;-93
2021/10/29 05:52:16;;;;;;;49.75;32.63;;;3.30;99.90;;;;;;4875882;29;20431;-92
2021/10/29 05:55:41;;;;;;;56.20;33.50;;;3.20;99.90;;;;;;4872498;29;20272;-93
2021/10/29 05:57:36;;;;;;;53.33;31.02;;;3.20;99.90;;;;;;4875155;29;20255;-93
2021/10/29 06:00:03;;;;;;;66.33;35.37;;;3.20;99.90;;;;;;4866185;29;20211;-92
2021/10/29 06:02:29;;;;;;;60.40;35.38;;;3.20;99.90;;;;;;4866111;29;20192;-91
2021/10/29 06:04:55;;;;;;;70.67;40.57;;;3.20;99.90;;;;;;4881835;29;20745;-93
2021/10/29 06:07:20;;;;;;;79.40;42.63;;;3.20;99.90;;;;;;4883648;29;20191;-92
2021/10/29 06:09:46;;;;;;;73.10;40.30;;;3.30;99.90;;;;;;4881988;29;20223;-91
2021/10/29 06:12:12;;;;;;;78.27;43.23;;;3.30;99.90;;;;;;4866235;29;20180;-93
2021/10/29 06:14:38;;;;;;;70.97;42.33;;;3.30;99.90;;;;;;4865750;29;20458;-91
2021/10/29 06:17:07;;;;;;;66.80;39.90;;;3.40;99.90;;;;;;4865729;29;20954;-92
2021/10/29 06:19:33;;;;;;;60.00;36.47;;;3.40;99.90;;;;;;4866361;29;20207;-92
2021/10/29 06:24:30;;;;;;;71.30;40.17;;;3.50;99.90;;;;;;4882442;29;20302;-92
2021/10/29 06:28:11;;;;;;;60.17;38.73;;;3.60;99.90;;;;;;4871434;29;20235;-92
2021/10/29 06:29:57;;;;;;;67.82;38.33;;;3.70;99.90;;;;;;4895265;29;20489;-92
2021/10/29 06:32:23;;;;;;;59.77;36.10;;;3.80;99.90;;;;;;4880983;29;20184;-92
2021/10/29 06:34:49;;;;;;;57.42;36.50;;;3.80;99.90;;;;;;4883288;29;20231;-93
2021/10/29 06:37:16;;;;;;;57.05;36.90;;;3.90;99.90;;;;;;4866220;29;20195;-93
2021/10/29 06:39:43;;;;;;;57.63;37.60;;;4.10;99.90;;;;;;4868805;29;20215;-93
2021/10/29 06:42:14;;;;;;;61.88;38.63;;;4.20;99.90;;;;;;4868222;29;20591;-93
2021/10/29 07:01:01;;;;;;;71.53;39.15;;;5.40;99.90;;;;;;4826184;29;20281;-93
2021/10/29 07:12:08;;;;;;;67.25;38.17;;;6.80;99.90;;;;;;4901883;29;20197;-93
2021/10/29 07:41:53;;;;;;;47.60;32.88;;;12.20;99.90;;;;;;4891257;29;20690;-93
2021/10/29 07:44:26;;;;;;;42.63;30.80;;;13.20;99.90;;;;;;4900117;29;20230;-92
2021/10/29 07:46:52;;;;;;;41.20;29.35;;;14.10;99.90;;;;;;4898906;29;20247;-93
2021/10/29 07:49:19;;;;;;;42.17;31.10;;;15.00;99.90;;;;;;4885415;29;20215;-93
2021/10/29 07:51:45;;;;;;;39.63;29.23;;;15.80;99.90;;;;;;4874066;29;20184;-93
2021/10/29 07:54:11;;;;;;;40.80;29.77;;;16.60;99.90;;;;;;4879035;29;20935;-92
2021/10/29 07:56:36;;;;;;;38.90;28.30;;;17.40;99.90;;;;;;4884536;29;20280;-92
2021/10/29 07:59:03;;;;;;;32.93;24.33;;;18.00;99.90;;;;;;4884944;29;20194;-92
2021/10/29 08:01:29;;;;;;;36.13;27.30;;;18.60;99.90;;;;;;4871473;29;20247;-92
2021/10/29 08:03:55;;;;;;;37.10;27.03;;;19.20;97.80;;;;;;4885570;29;20461;-91
2021/10/29 08:06:20;;;;;;;37.77;26.93;;;19.90;96.50;;;;;;4903566;29;20207;-92
2021/10/29 08:08:49;;;;;;;34.77;27.03;;;20.50;95.60;;;;;;4891149;29;21007;-90
2021/10/29 08:11:15;;;;;;;33.60;25.30;;;20.90;94.20;;;;;;4870667;29;20429;-94
2021/10/29 08:13:41;;;;;;;36.77;29.43;;;21.30;93.50;;;;;;4865155;29;20662;-93
2021/10/29 08:16:13;;;;;;;34.90;26.17;;;21.70;92.60;;;;;;4885256;29;20208;-94
2021/10/29 08:18:45;;;;;;;37.20;26.47;;;22.10;92.00;;;;;;4866757;29;20779;-93
2021/10/29 08:21:13;;;;;;;34.47;25.63;;;22.50;91.40;;;;;;4876211;29;20808;-92
2021/10/29 08:23:41;;;;;;;31.77;24.97;;;22.80;90.40;;;;;;4887642;29;20473;-93
2021/10/29 08:26:07;;;;;;;33.40;26.00;;;23.10;89.70;;;;;;4898713;29;20960;-93
2021/10/29 08:28:33;;;;;;;30.77;24.80;;;23.10;89.00;;;;;;4881918;29;20777;-92
2021/10/29 08:31:00;;;;;;;33.67;25.43;;;22.70;87.80;;;;;;4890002;29;20458;-91
2021/10/29 08:33:26;;;;;;;35.23;25.77;;;22.20;88.00;;;;;;4888214;29;20192;-93
2021/10/29 08:35:52;;;;;;;34.33;26.70;;;21.60;88.90;;;;;;4879991;29;20458;-93
2021/10/29 08:38:19;;;;;;;34.33;25.83;;;21.10;89.50;;;;;;4882560;29;20464;-93
2021/10/29 08:40:45;;;;;;;32.17;24.13;;;20.60;90.30;;;;;;4901391;29;20270;-92
2021/10/29 08:43:11;;;;;;;29.97;23.60;;;20.30;90.30;;;;;;4886393;29;20443;-92
2021/10/29 08:45:38;;;;;;;30.47;24.67;;;20.00;90.60;;;;;;4882541;29;20477;-95
2021/10/29 08:48:05;;;;;;;28.80;23.37;;;19.80;91.00;;;;;;4882038;29;20438;-92
2021/10/29 08:50:32;;;;;;;27.17;23.10;;;19.40;91.20;;;;;;4893558;29;20450;-91
2021/10/29 08:52:58;;;;;;;31.57;23.50;;;19.00;91.70;;;;;;4896220;29;20447;-91
2021/10/29 08:55:27;;;;;;;29.50;23.27;;;18.70;92.10;;;;;;4888895;29;20437;-92
2021/10/29 08:57:53;;;;;;;31.93;23.47;;;18.40;92.60;;;;;;4877288;29;20184;-94
2021/10/29 09:00:28;;;;;;;33.40;24.03;;;18.00;93.20;;;;;;4894944;29;20474;-93
2021/10/29 09:03:04;;;;;;;58.67;52.53;;;17.80;93.30;;;;;;4883815;29;20445;-94
2021/10/29 09:05:53;;;;;;;34.23;22.40;;;17.70;93.40;;;;;;4908246;29;20465;-94
2021/10/29 09:08:36;;;;;;;25.43;21.67;;;17.50;93.40;;;;;;4872552;29;20525;-93
2021/10/29 09:34:15;;;;;;;19.90;13.53;;;17.00;94.00;;;;;;4888648;29;20951;-90
2021/10/29 09:36:49;;;;;;;24.00;14.87;;;17.00;93.90;;;;;;4867951;29;20459;-91
2021/10/29 09:39:17;;;;;;;21.30;16.30;;;17.10;93.70;;;;;;4864275;29;20459;-89
2021/10/29 09:41:44;;;;;;;17.87;15.43;;;17.10;93.10;;;;;;4866092;29;20470;-90
2021/10/29 09:44:17;;;;;;;16.37;14.23;;;17.00;93.40;;;;;;4871719;29;20434;-91
2021/10/29 09:46:58;;;;;;;22.67;16.93;;;17.00;93.30;;;;;;4880776;29;20585;-93
2021/10/29 09:49:35;;;;;;;20.13;16.43;;;17.00;94.20;;;;;;4887839;29;20480;-93
2021/10/29 09:57:14;;;;;;;24.03;17.07;;;17.10;93.80;;;;;;4901200;29;20426;-93
2021/10/29 09:59:40;;;;;;;23.80;15.87;;;17.10;93.90;;;;;;4882320;29;20442;-92
2021/10/29 10:02:06;;;;;;;22.90;16.97;;;17.10;93.90;;;;;;4883020;29;20535;-94
2021/10/29 10:04:34;;;;;;;20.53;15.67;;;17.10;93.90;;;;;;4873606;29;20243;-94
2021/10/29 10:07:02;;;;;;;19.13;14.47;;;17.10;94.00;;;;;;4872610;29;20486;-94
2021/10/29 10:09:28;;;;;;;22.77;16.70;;;17.10;94.10;;;;;;4869012;29;20491;-94
2021/10/29 10:11:56;;;;;;;17.30;13.77;;;17.10;93.90;;;;;;4882143;29;20495;-93
2021/10/29 10:14:23;;;;;;;19.53;13.60;;;17.10;93.80;;;;;;4873868;29;20434;-92
2021/10/29 10:16:49;;;;;;;17.40;13.23;;;17.10;94.00;;;;;;4881389;29;20466;-94
2021/10/29 10:19:15;;;;;;;20.67;14.73;;;17.20;93.90;;;;;;4873781;29;20453;-93
2021/10/29 10:21:45;;;;;;;19.30;14.00;;;17.20;94.00;;;;;;4893681;29;20430;-92
2021/10/29 10:24:15;;;;;;;17.67;13.43;;;17.20;94.00;;;;;;4890441;29;20458;-92
2021/10/29 10:27:23;;;;;;;20.50;15.10;;;17.20;94.00;;;;;;4884210;29;20718;-93
2021/10/29 10:30:10;;;;;;;23.80;14.93;;;17.20;93.80;;;;;;4912314;29;20448;-94
2021/10/29 10:41:54;;;;;;;21.30;14.90;;;17.20;94.10;;;;;;4897785;29;20476;-92
2021/10/29 10:45:01;;;;;;;19.20;14.53;;;17.30;94.10;;;;;;4889201;29;20442;-94
2021/10/29 10:46:56;;;;;;;24.47;17.27;;;17.30;94.20;;;;;;4888342;29;20494;-93
2021/10/29 10:49:43;;;;;;;18.07;13.43;;;17.30;94.00;;;;;;4893073;29;20416;-92
2021/10/29 10:52:28;;;;;;;21.17;15.77;;;17.30;94.00;;;;;;4878313;29;20446;-92
2021/10/29 10:55:09;;;;;;;20.70;14.33;;;17.30;93.90;;;;;;4874160;29;20461;-93
2021/10/29 10:57:52;;;;;;;21.13;14.57;;;17.30;93.90;;;;;;4878376;29;20465;-93
2021/10/29 11:11:00;;;;;;;15.73;12.50;;;17.40;93.30;;;;;;4898367;29;20582;-93
2021/10/29 11:13:45;;;;;;;18.43;12.63;;;17.40;93.30;;;;;;4886087;29;20407;-93
2021/10/29 11:16:24;;;;;;;17.40;13.63;;;17.40;93.50;;;;;;4868111;29;20474;-93
2021/10/29 11:18:55;;;;;;;17.83;13.40;;;17.40;93.30;;;;;;4870044;29;20435;-93
2021/10/29 11:21:35;;;;;;;15.40;12.13;;;17.50;93.50;;;;;;4864015;29;20451;-93
2021/10/29 11:24:03;;;;;;;17.37;13.37;;;17.50;93.30;;;;;;4883535;29;20802;-90
2021/10/29 11:26:36;;;;;;;15.00;13.03;;;17.50;93.60;;;;;;4882499;29;20878;-95
2021/10/29 11:29:04;;;;;;;18.73;12.40;;;17.50;93.00;;;;;;4875221;29;20541;-93
2021/10/29 11:31:33;;;;;;;14.70;11.87;;;17.50;93.20;;;;;;4868353;29;20664;-93
2021/10/29 11:34:03;;;;;;;16.60;12.67;;;17.50;92.80;;;;;;4881491;29;20450;-94
2021/10/29 11:36:32;;;;;;;16.37;12.97;;;17.50;92.80;;;;;;4878946;29;20441;-93
2021/10/29 11:38:59;;;;;;;18.30;13.23;;;17.50;93.00;;;;;;4886507;29;20434;-94
2021/10/29 11:41:31;;;;;;;16.90;13.03;;;17.60;92.70;;;;;;4867250;29;20467;-94
2021/10/29 11:44:15;;;;;;;14.13;11.47;;;17.60;92.60;;;;;;4875299;29;20450;-94
2021/10/29 11:46:43;;;;;;;14.83;12.90;;;17.60;93.00;;;;;;4875721;29;20485;-95
2021/10/29 11:49:24;;;;;;;15.00;11.60;;;17.60;92.70;;;;;;4875150;29;20920;-93
2021/10/29 11:51:51;;;;;;;13.50;11.67;;;17.60;93.00;;;;;;4880505;29;20446;-92
2021/10/29 11:54:26;;;;;;;15.67;12.00;;;17.60;93.00;;;;;;4882513;29;20465;-93
2021/10/29 12:07:37;;;;;;;18.40;11.87;;;17.70;92.90;;;;;;4906080;29;20540;-92
2021/10/29 12:10:18;;;;;;;16.43;11.87;;;17.70;93.10;;;;;;4899582;29;20441;-93
2021/10/29 12:12:46;;;;;;;14.07;11.90;;;17.70;91.60;;;;;;4882397;29;20454;-93
2021/10/29 12:15:21;;;;;;;15.33;10.63;;;17.80;91.90;;;;;;4884958;29;20533;-94
2021/10/29 12:17:54;;;;;;;18.17;12.20;;;17.80;92.00;;;;;;4866507;29;20469;-93
2021/10/29 12:20:38;;;;;;;14.47;11.70;;;17.80;92.70;;;;;;4866377;29;20478;-94
2021/10/29 12:23:15;;;;;;;15.37;11.80;;;17.80;92.80;;;;;;4884095;29;20494;-93
2021/10/29 12:28:23;;;;;;;14.90;11.10;;;17.90;91.80;;;;;;4893525;29;20442;-93
2021/10/29 12:30:57;;;;;;;17.70;11.47;;;17.90;92.40;;;;;;4889868;29;20442;-92
2021/10/29 12:51:54;;;;;;;15.30;10.70;;;18.00;91.00;;;;;;4891927;29;20530;-92
2021/10/29 12:53:47;;;;;;;13.10;9.47;;;18.00;91.50;;;;;;4905336;29;20437;-94
2021/10/29 12:59:29;;;;;;;12.53;10.27;;;18.10;91.60;;;;;;4902461;29;20469;-91
2021/10/29 13:01:58;;;;;;;12.07;9.60;;;18.10;90.00;;;;;;4886384;29;20835;-91
2021/10/29 13:04:57;;;;;;;15.57;10.50;;;18.10;91.70;;;;;;4894883;29;20449;-93
2021/10/29 13:07:28;;;;;;;10.87;9.07;;;18.10;91.60;;;;;;4875478;29;20503;-94
2021/10/29 13:10:07;;;;;;;11.40;9.43;;;18.10;91.50;;;;;;4882519;29;20442;-94
2021/10/29 13:12:43;;;;;;;18.57;11.87;;;18.20;90.90;;;;;;4865605;29;20435;-93
2021/10/29 13:15:19;;;;;;;12.50;9.63;;;18.20;90.80;;;;;;4864440;29;20455;-94
2021/10/29 13:18:08;;;;;;;12.87;9.03;;;18.30;90.30;;;;;;4869582;29;20462;-92
2021/10/29 13:28:57;;;;;;;11.70;9.40;;;18.50;88.60;;;;;;4862453;29;20405;-95
2021/10/29 13:58:48;;;;;;;10.40;8.00;;;19.00;84.40;;;;;;4889691;29;20490;-92
2021/10/29 14:28:53;;;;;;;17.20;10.87;;;19.00;84.90;;;;;;4890170;29;20508;-93
2021/10/29 14:31:31;;;;;;;16.47;11.20;;;19.10;84.50;;;;;;4873069;29;20461;-93
2021/10/29 14:34:16;;;;;;;13.03;11.43;;;19.10;84.80;;;;;;4877512;29;20431;-93
2021/10/29 14:36:47;;;;;;;11.97;9.77;;;19.10;85.00;;;;;;4897715;29;20498;-93
2021/10/29 14:39:39;;;;;;;11.27;9.03;;;19.10;85.00;;;;;;4868975;29;20439;-93
2021/10/29 14:42:13;;;;;;;11.80;9.10;;;19.10;85.40;;;;;;4888904;29;20981;-94
2021/10/29 15:06:13;;;;;;;11.70;10.30;;;19.30;86.90;;;;;;4900722;29;20495;-95
2021/10/29 15:24:40;;;;;;;149.67;72.87;;;18.60;87.90;;;;;;4886272;29;20549;-95
2021/10/29 15:31:03;;;;;;;36.03;25.50;;;18.20;88.70;;;;;;4891059;29;20480;-94
2021/10/29 15:40:55;;;;;;;46.43;29.70;;;18.10;88.90;;;;;;4877162;29;20445;-93
2021/10/29 15:42:42;;;;;;;27.90;20.83;;;17.70;90.10;;;;;;4888317;29;20508;-95
2021/10/29 15:45:18;;;;;;;36.43;22.40;;;17.60;89.80;;;;;;4887334;29;20466;-96
2021/10/29 15:50:32;;;;;;;64.77;40.27;;;17.30;90.70;;;;;;4896719;29;20465;-94
2021/10/29 15:53:06;;;;;;;65.23;40.77;;;17.20;91.00;;;;;;4886216;29;20469;-93
2021/10/29 16:17:11;;;;;;;37.20;21.53;;;15.80;92.10;;;;;;4888815;29;20489;-94
2021/10/29 16:19:38;;;;;;;39.47;21.27;;;15.70;92.20;;;;;;4888493;29;20472;-95
2021/10/29 16:22:07;;;;;;;35.93;22.70;;;15.60;92.30;;;;;;4877427;29;20445;-95
2021/10/29 16:24:33;;;;;;;37.23;25.40;;;15.40;92.50;;;;;;4872998;29;20528;-94
2021/10/29 16:26:59;;;;;;;40.30;29.47;;;15.30;93.00;;;;;;4876783;29;20558;-94
2021/10/29 16:29:26;;;;;;;37.80;26.00;;;15.20;93.00;;;;;;4883948;29;20472;-95
2021/10/29 16:31:54;;;;;;;40.97;23.87;;;15.10;93.20;;;;;;4880233;29;20799;-92
2021/10/29 16:34:28;;;;;;;38.17;25.53;;;15.00;93.40;;;;;;4891152;29;20812;-93
2021/10/29 16:36:56;;;;;;;46.90;27.97;;;14.90;93.20;;;;;;4897880;29;20429;-94
2021/10/29 16:39:25;;;;;;;44.40;28.20;;;14.80;93.50;;;;;;4885968;29;20454;-93
2021/10/29 16:41:51;;;;;;;70.50;40.20;;;14.70;93.40;;;;;;4884280;29;20461;-92
2021/10/29 16:44:17;;;;;;;69.63;43.27;;;14.60;93.70;;;;;;4871373;29;20478;-94
2021/10/29 16:46:43;;;;;;;69.50;43.00;;;14.50;93.60;;;;;;4876634;29;20491;-94
2021/10/29 16:49:08;;;;;;;85.50;51.80;;;14.40;94.10;;;;;;4873964;29;20716;-94
2021/10/29 16:51:34;;;;;;;94.37;51.83;;;14.40;94.60;;;;;;4883528;29;20193;-93
2021/10/29 16:54:00;;;;;;;95.93;54.97;;;14.20;94.50;;;;;;4886977;29;20203;-93
2021/10/29 16:56:26;;;;;;;97.33;52.50;;;14.10;94.70;;;;;;4883321;29;20211;-93
2021/10/29 16:59:00;;;;;;;92.13;51.63;;;14.10;94.90;;;;;;4886195;29;20207;-93
2021/10/29 17:01:26;;;;;;;84.63;49.73;;;14.10;95.00;;;;;;4881665;29;20438;-93
2021/10/29 17:03:54;;;;;;;89.23;49.20;;;14.00;94.80;;;;;;4885367;29;20470;-94
2021/10/29 17:06:39;;;;;;;83.10;50.13;;;14.00;95.00;;;;;;4885808;29;20215;-95
2021/10/29 17:09:06;;;;;;;78.60;45.63;;;14.00;95.20;;;;;;4879658;29;20454;-96
2021/10/29 17:11:32;;;;;;;72.00;45.10;;;13.90;95.20;;;;;;4883954;29;20445;-96
2021/10/29 17:14:04;;;;;;;75.03;48.10;;;13.90;95.40;;;;;;4876182;29;20470;-94
2021/10/29 17:16:30;;;;;;;74.50;45.93;;;13.80;95.60;;;;;;4874997;29;20184;-95
2021/10/29 17:18:56;;;;;;;67.93;46.27;;;13.80;95.60;;;;;;4878265;29;20439;-95
2021/10/29 17:21:34;;;;;;;70.23;45.70;;;13.70;95.80;;;;;;4896863;29;20453;-95